Time;durP1;ratioP1;P1;durP2;ratioP2;P2;SDS_P1;SDS_P2;PMS_P1;PMS_P2;Temp;Humidity;BMP_temperature;BMP_pressure;BME280_temperature;BME280_humidity;BME280_pressure;Samples;Min_cycle;Max_cycle;Signal;HPM_P1;HPM_P2
2022/04/06 00:01:31;;;;;;;7.00;2.57;;;;;;;20.14;47.37;100405.38;5014263;28;20030;-55
2022/04/06 00:03:56;;;;;;;7.63;2.70;;;;;;;20.13;47.47;100401.09;5013117;28;20341;-55
2022/04/06 00:06:21;;;;;;;7.22;2.50;;;;;;;20.11;47.66;100404.69;5013998;28;20470;-56
2022/04/06 00:08:47;;;;;;;7.47;2.63;;;;;;;20.08;47.49;100399.72;5013885;28;20045;-57
2022/04/06 00:11:15;;;;;;;6.80;2.30;;;;;;;20.09;47.41;100390.81;5012751;28;20034;-55
2022/04/06 00:13:40;;;;;;;7.32;2.45;;;;;;;20.08;47.55;100393.59;5013502;28;20371;-57
2022/04/06 00:16:05;;;;;;;6.65;2.50;;;;;;;20.06;47.37;100392.88;5013624;28;20113;-56
2022/04/06 00:18:31;;;;;;;7.70;2.30;;;;;;;20.03;47.66;100383.47;5013148;28;20029;-56
2022/04/06 00:20:56;;;;;;;7.03;2.28;;;;;;;20.02;47.47;100391.53;5013490;28;20087;-57
2022/04/06 00:23:21;;;;;;;9.63;2.40;;;;;;;19.99;47.47;100383.91;5013810;28;20018;-56
2022/04/06 00:25:49;;;;;;;6.33;2.50;;;;;;;19.99;47.42;100386.53;5012954;28;20034;-56
2022/04/06 00:28:14;;;;;;;7.95;2.38;;;;;;;19.97;47.90;100385.88;5013176;28;20058;-56
2022/04/06 00:30:42;;;;;;;7.70;2.60;;;;;;;19.94;47.69;100382.50;5013776;28;20084;-57
2022/04/06 00:33:08;;;;;;;7.45;2.92;;;;;;;19.93;47.56;100386.16;5012606;28;20025;-58
2022/04/06 00:35:36;;;;;;;6.43;2.40;;;;;;;19.94;47.68;100386.97;5013566;28;20498;-55
2022/04/06 00:38:04;;;;;;;7.75;2.47;;;;;;;19.93;47.56;100387.94;5012361;28;20033;-57
2022/04/06 00:40:35;;;;;;;7.15;2.38;;;;;;;19.91;47.62;100384.63;5013523;28;20389;-56
2022/04/06 00:43:05;;;;;;;7.30;2.33;;;;;;;19.90;47.68;100380.31;5013318;28;20030;-57
2022/04/06 00:45:51;;;;;;;8.32;2.38;;;;;;;19.88;47.92;100369.06;5012523;28;20449;-56
2022/04/06 00:48:15;;;;;;;6.15;2.10;;;;;;;19.87;47.75;100370.06;5013141;28;20038;-57
2022/04/06 00:50:44;;;;;;;9.93;2.40;;;;;;;19.85;47.70;100370.19;5013378;28;20045;-57
2022/04/06 00:53:11;;;;;;;7.35;2.17;;;;;;;19.85;47.36;100374.63;5012158;28;20283;-57
2022/04/06 00:55:38;;;;;;;5.82;2.33;;;;;;;19.82;47.96;100372.28;5013266;28;20064;-56
2022/04/06 00:58:04;;;;;;;5.18;1.90;;;;;;;19.80;48.07;100372.44;5013062;28;20051;-54
2022/04/06 01:00:30;;;;;;;6.53;2.10;;;;;;;19.80;48.01;100368.97;5012503;28;20018;-55
2022/04/06 01:02:56;;;;;;;5.57;2.10;;;;;;;19.79;47.92;100365.50;5012963;28;20033;-55
2022/04/06 01:05:21;;;;;;;7.57;2.17;;;;;;;19.79;47.83;100369.94;5013118;28;20022;-55
2022/04/06 01:07:51;;;;;;;6.28;2.65;;;;;;;19.76;47.71;100357.84;5012195;28;20088;-56
2022/04/06 01:10:17;;;;;;;8.60;2.50;;;;;;;19.75;47.78;100356.97;5013043;28;20022;-56
2022/04/06 01:12:46;;;;;;;8.48;2.83;;;;;;;19.74;47.77;100362.41;5013030;28;20048;-56
2022/04/06 01:15:11;;;;;;;8.32;2.38;;;;;;;19.73;47.63;100358.13;5012001;28;20049;-56
2022/04/06 01:17:36;;;;;;;7.78;2.25;;;;;;;19.73;47.77;100350.19;5013101;28;20072;-55
2022/04/06 01:20:07;;;;;;;6.85;2.88;;;;;;;19.72;47.83;100357.25;5012720;28;20405;-56
2022/04/06 01:22:33;;;;;;;8.38;2.05;;;;;;;19.70;47.88;100356.59;5012063;28;20049;-55
2022/04/06 01:24:58;;;;;;;6.20;2.10;;;;;;;19.70;47.68;100347.84;5012807;28;20030;-55
2022/04/06 01:27:24;;;;;;;7.23;2.43;;;;;;;19.69;47.80;100348.81;5012232;28;20022;-56
2022/04/06 01:29:51;;;;;;;9.65;2.33;;;;;;;19.68;47.63;100347.16;5012550;28;20278;-55
2022/04/06 01:32:20;;;;;;;8.95;2.08;;;;;;;19.67;47.81;100351.59;5012751;28;20374;-55
2022/04/06 01:34:46;;;;;;;5.40;2.15;;;;;;;19.64;47.97;100343.94;5012028;28;20018;-56
2022/04/06 01:37:16;;;;;;;4.90;2.08;;;;;;;19.63;47.88;100349.38;5012457;28;20030;-56
2022/04/06 01:39:44;;;;;;;5.85;2.10;;;;;;;19.63;48.07;100346.75;5015740;28;20034;-56
2022/04/06 01:42:11;;;;;;;7.00;1.77;;;;;;;19.63;47.59;100341.47;5015727;28;20022;-56
2022/04/06 01:44:37;;;;;;;7.05;1.95;;;;;;;19.61;47.95;100340.78;5016817;28;20030;-56
2022/04/06 01:47:08;;;;;;;6.10;1.88;;;;;;;19.60;47.88;100341.75;5016435;28;20106;-57
2022/04/06 01:52:19;;;;;;;7.93;2.17;;;;;;;19.57;47.83;100335.78;5016905;28;20040;-56
2022/04/06 01:54:53;;;;;;;6.30;2.20;;;;;;;19.57;47.92;100338.44;5016579;28;20109;-56
2022/04/06 01:57:20;;;;;;;7.32;1.88;;;;;;;19.56;47.86;100333.28;5015570;28;20132;-56
2022/04/06 01:59:46;;;;;;;8.88;2.00;;;;;;;19.55;47.76;100337.75;5016260;28;20030;-58
2022/04/06 02:02:13;;;;;;;8.50;2.53;;;;;;;19.55;47.66;100335.09;5015948;28;20018;-57
2022/04/06 02:04:40;;;;;;;5.70;1.80;;;;;;;19.54;47.69;100336.06;5015671;28;20032;-57
2022/04/06 02:07:06;;;;;;;8.15;2.35;;;;;;;19.53;47.81;100334.41;5016090;28;20026;-57
2022/04/06 02:09:31;;;;;;;4.95;1.80;;;;;;;19.53;47.67;100333.56;5015435;28;20377;-57
2022/04/06 02:11:59;;;;;;;6.38;1.80;;;;;;;19.52;47.99;100324.00;5015670;28;20050;-57
2022/04/06 02:14:25;;;;;;;7.57;2.35;;;;;;;19.52;47.84;100326.66;5016092;28;20026;-56
2022/04/06 02:16:51;;;;;;;6.00;1.77;;;;;;;19.50;47.73;100323.28;5015151;28;20030;-57
2022/04/06 02:19:16;;;;;;;6.45;1.80;;;;;;;19.51;47.76;100325.78;5015973;28;20068;-57
2022/04/06 02:21:44;;;;;;;6.70;2.25;;;;;;;19.50;47.83;100321.50;5016098;28;20117;-57
2022/04/06 02:24:09;;;;;;;4.85;2.08;;;;;;;19.50;47.65;100324.16;5014981;28;20030;-57
2022/04/06 02:26:40;;;;;;;5.88;1.90;;;;;;;19.49;47.87;100316.38;5015874;28;20533;-57
2022/04/06 02:29:05;;;;;;;6.35;2.00;;;;;;;19.48;47.64;100314.69;5015506;28;20038;-57
2022/04/06 02:31:32;;;;;;;7.53;1.97;;;;;;;19.47;47.76;100316.50;5015303;28;20033;-57
2022/04/06 02:33:57;;;;;;;6.10;1.85;;;;;;;19.47;47.52;100315.66;5015516;28;20283;-58
2022/04/06 02:36:22;;;;;;;6.75;2.00;;;;;;;19.45;47.75;100315.81;5015787;28;20188;-56
2022/04/06 02:38:47;;;;;;;5.43;1.80;;;;;;;19.45;47.62;100312.34;5015029;28;20029;-56
2022/04/06 02:41:13;;;;;;;7.07;1.87;;;;;;;19.45;47.30;100314.97;5015269;28;20120;-56
2022/04/06 02:43:39;;;;;;;6.00;1.90;;;;;;;19.44;47.41;100308.88;5015539;28;20267;-55
2022/04/06 02:46:04;;;;;;;8.02;1.90;;;;;;;19.43;47.61;100309.03;5014665;28;20064;-56
2022/04/06 02:48:30;;;;;;;6.50;1.80;;;;;;;19.42;47.52;100309.97;5015661;28;20022;-57
2022/04/06 02:50:55;;;;;;;6.88;1.95;;;;;;;19.41;47.86;100303.88;5014708;28;20370;-57
2022/04/06 02:53:21;;;;;;;7.28;2.17;;;;;;;19.42;47.28;100302.06;5014900;28;20116;-56
2022/04/06 02:55:48;;;;;;;6.90;2.13;;;;;;;19.41;47.42;100303.88;5015232;28;20030;-56
2022/04/06 02:58:14;;;;;;;5.97;1.70;;;;;;;19.40;47.42;100295.09;5015351;28;20022;-55
2022/04/06 03:00:39;;;;;;;5.55;1.50;;;;;;;19.42;47.61;100287.03;5014675;28;20017;-55
2022/04/06 03:03:04;;;;;;;4.45;1.60;;;;;;;19.45;47.84;100296.47;5015272;28;20076;-55
2022/04/06 03:05:32;;;;;;;5.93;1.80;;;;;;;19.48;47.80;100282.97;5015438;28;20046;-55
2022/04/06 03:07:58;;;;;;;8.40;2.00;;;;;;;19.51;47.57;100286.16;5014415;28;20076;-55
2022/04/06 03:10:26;;;;;;;6.07;1.55;;;;;;;19.54;47.28;100285.03;5015412;28;20026;-56
2022/04/06 03:12:54;;;;;;;7.25;1.83;;;;;;;19.58;47.37;100289.88;5014046;28;20080;-56
2022/04/06 03:15:19;;;;;;;5.90;1.55;;;;;;;19.61;47.38;100272.06;5015178;28;20034;-56
2022/04/06 03:17:47;;;;;;;4.47;1.42;;;;;;;19.62;47.21;100271.91;5015387;28;20053;-56
2022/04/06 03:20:13;;;;;;;4.75;1.75;;;;;;;19.64;47.13;100266.47;5014381;28;20033;-55
2022/04/06 03:22:39;;;;;;;5.35;1.70;;;;;;;19.64;47.36;100269.94;5015272;28;20149;-57
2022/04/06 03:25:05;;;;;;;5.55;1.60;;;;;;;19.65;47.17;100263.69;5014769;28;20381;-56
2022/04/06 03:27:34;;;;;;;5.28;1.60;;;;;;;19.65;46.85;100266.31;5014183;28;20030;-56
2022/04/06 03:29:59;;;;;;;6.15;1.60;;;;;;;19.69;46.77;100264.22;5014686;28;20034;-56
2022/04/06 03:32:24;;;;;;;5.55;1.88;;;;;;;19.67;46.64;100256.44;5015043;28;20377;-55
2022/04/06 03:34:50;;;;;;;6.87;1.67;;;;;;;19.67;46.63;100252.97;5013802;28;20121;-55
2022/04/06 03:37:15;;;;;;;7.18;2.33;;;;;;;19.67;46.50;100256.44;5014374;28;20319;-57
2022/04/06 03:39:40;;;;;;;7.33;1.90;;;;;;;19.68;46.60;100246.72;5014708;28;20041;-56
2022/04/06 03:42:06;;;;;;;5.05;1.38;;;;;;;19.68;46.37;100244.88;5013272;28;20279;-56
2022/04/06 03:44:34;;;;;;;6.20;2.00;;;;;;;19.68;46.32;100242.25;5014589;28;20036;-56
2022/04/06 03:46:59;;;;;;;7.03;2.05;;;;;;;19.68;46.46;100236.13;5014245;28;20052;-56
2022/04/06 03:49:25;;;;;;;4.90;1.47;;;;;;;19.68;46.36;100234.31;5013732;28;20017;-55
2022/04/06 03:51:50;;;;;;;6.15;2.15;;;;;;;19.68;46.36;100239.59;5014154;28;20347;-55
2022/04/06 03:54:18;;;;;;;5.47;1.60;;;;;;;19.69;46.14;100237.78;5014327;28;20053;-55
2022/04/06 03:56:43;;;;;;;5.32;1.40;;;;;;;19.68;46.05;100234.31;5013264;28;20034;-55
2022/04/06 03:59:18;;;;;;;5.80;2.00;;;;;;;19.69;46.26;100237.78;5014090;28;20033;-55
2022/04/06 04:01:43;;;;;;;5.38;1.63;;;;;;;19.69;45.89;100229.84;5013295;28;20334;-55
2022/04/06 04:04:10;;;;;;;5.57;1.60;;;;;;;19.69;45.87;100232.50;5012511;28;20121;-55
2022/04/06 04:06:37;;;;;;;4.78;1.38;;;;;;;19.70;45.81;100234.16;5013987;28;20279;-56
2022/04/06 04:09:07;;;;;;;3.63;1.35;;;;;;;19.65;45.94;100229.31;5013086;28;20021;-56
2022/04/06 04:11:33;;;;;;;6.40;1.55;;;;;;;19.66;46.27;100232.78;5013736;28;20042;-56
2022/04/06 04:13:59;;;;;;;5.88;1.40;;;;;;;19.67;46.54;100232.63;5013773;28;20045;-56
2022/04/06 04:16:24;;;;;;;5.47;1.70;;;;;;;19.70;46.42;100234.16;5012804;28;20527;-55
2022/04/06 04:18:50;;;;;;;6.57;1.60;;;;;;;19.71;46.41;100234.00;5013555;28;20026;-56
2022/04/06 04:21:33;;;;;;;7.03;1.40;;;;;;;19.74;46.42;100235.50;5013781;28;20021;-56
2022/04/06 04:24:04;;;;;;;6.72;1.73;;;;;;;19.73;46.25;100231.22;5012881;28;20355;-56
2022/04/06 04:26:30;;;;;;;7.50;1.60;;;;;;;19.74;46.21;100224.94;5013521;28;20022;-56
2022/04/06 04:28:56;;;;;;;4.20;1.88;;;;;;;19.76;46.20;100223.03;5013330;28;20060;-55
2022/04/06 04:31:21;;;;;;;7.68;1.70;;;;;;;19.75;45.97;100216.03;5012070;28;20045;-56
2022/04/06 04:33:46;;;;;;;8.35;1.90;;;;;;;19.76;46.04;100225.66;5013407;28;20029;-55
2022/04/06 04:36:12;;;;;;;5.30;1.90;;;;;;;19.74;46.09;100224.94;5012915;28;20061;-56
2022/04/06 04:38:40;;;;;;;4.93;1.30;;;;;;;19.74;46.24;100220.50;5012938;28;20029;-57
2022/04/06 04:41:06;;;;;;;7.20;2.60;;;;;;;19.75;46.08;100216.03;5012849;28;20116;-55
2022/04/06 04:43:32;;;;;;;7.20;2.08;;;;;;;19.74;46.34;100217.84;5013200;28;20030;-54
2022/04/06 04:45:57;;;;;;;5.65;1.63;;;;;;;19.75;46.06;100221.31;5012247;28;20077;-54
2022/04/06 04:48:23;;;;;;;6.28;1.58;;;;;;;19.73;45.98;100213.53;5013184;28;20064;-54
2022/04/06 04:50:51;;;;;;;5.47;1.53;;;;;;;19.73;45.93;100210.06;5013033;28;20038;-55
2022/04/06 04:53:16;;;;;;;7.82;1.98;;;;;;;19.73;45.69;100204.78;5012578;28;20283;-55
2022/04/06 04:55:42;;;;;;;5.25;1.38;;;;;;;19.72;45.96;100203.09;5013139;28;20022;-56
2022/04/06 04:58:07;;;;;;;5.85;1.58;;;;;;;19.72;45.89;100208.41;5012976;28;20022;-56
2022/04/06 05:00:33;;;;;;;8.05;1.70;;;;;;;19.72;45.76;100197.81;5012355;28;20079;-55
2022/04/06 05:03:02;;;;;;;5.57;1.70;;;;;;;19.71;45.88;100194.34;5012722;28;20469;-55
2022/04/06 05:08:14;;;;;;;7.55;1.83;;;;;;;19.72;45.79;100192.53;5012022;28;20358;-55
2022/04/06 05:10:39;;;;;;;5.80;1.77;;;;;;;19.70;46.13;100192.69;5013225;28;20462;-55
2022/04/06 05:13:05;;;;;;;6.68;1.80;;;;;;;19.71;46.34;100199.66;5011345;28;20073;-55
2022/04/06 05:15:31;;;;;;;7.03;1.90;;;;;;;19.72;46.19;100195.19;5012807;28;20026;-56
2022/04/06 05:17:56;;;;;;;7.75;1.88;;;;;;;19.73;46.30;100200.31;5012582;28;20037;-56
2022/04/06 05:20:21;;;;;;;6.10;1.50;;;;;;;19.75;46.45;100197.53;5012344;28;20156;-55
2022/04/06 05:22:46;;;;;;;5.28;1.73;;;;;;;19.77;46.47;100190.28;5012708;28;20026;-55
2022/04/06 05:25:12;;;;;;;6.93;1.93;;;;;;;19.78;46.20;100184.03;5012249;28;20225;-55
2022/04/06 05:27:48;;;;;;;6.68;1.60;;;;;;;19.80;46.05;100192.63;5012017;28;20306;-55
2022/04/06 05:30:15;;;;;;;6.20;1.58;;;;;;;19.81;45.98;100189.03;5012601;28;20026;-56
2022/04/06 05:32:41;;;;;;;9.50;2.05;;;;;;;19.80;45.69;100187.34;5012921;28;20022;-55
2022/04/06 05:35:09;;;;;;;4.43;1.65;;;;;;;19.79;45.86;100193.63;5011712;28;20069;-56
2022/04/06 05:37:38;;;;;;;5.63;1.55;;;;;;;19.80;46.12;100187.34;5012724;28;20060;-56
2022/04/06 05:40:05;;;;;;;5.78;1.52;;;;;;;19.81;46.19;100191.66;5012391;28;20029;-56
2022/04/06 05:42:31;;;;;;;7.20;1.50;;;;;;;19.83;46.52;100192.34;5011764;28;20026;-56
2022/04/06 05:44:59;;;;;;;5.00;1.60;;;;;;;19.84;46.78;100185.25;5012217;28;20080;-56
2022/04/06 05:47:24;;;;;;;4.63;1.60;;;;;;;19.87;46.80;100184.94;5012711;28;20018;-55
2022/04/06 05:49:50;;;;;;;6.38;1.65;;;;;;;19.88;47.13;100179.47;5011745;28;20097;-56
2022/04/06 05:52:15;;;;;;;3.85;1.30;;;;;;;19.91;46.87;100181.00;5012629;28;20470;-56
2022/04/06 05:54:41;;;;;;;5.80;1.30;;;;;;;19.92;46.64;100175.56;5011786;28;20389;-55
2022/04/06 05:57:06;;;;;;;6.55;1.50;;;;;;;19.92;46.82;100170.28;5012055;28;20443;-56
2022/04/06 05:59:31;;;;;;;4.82;1.40;;;;;;;19.94;46.88;100178.06;5012448;28;20032;-56
2022/04/06 06:01:57;;;;;;;5.07;1.33;;;;;;;19.94;46.71;100173.59;5011372;28;20087;-55
2022/04/06 06:04:22;;;;;;;4.72;1.40;;;;;;;19.96;47.10;100185.84;5012427;28;20033;-55
2022/04/06 06:06:48;;;;;;;4.80;1.40;;;;;;;19.97;46.85;100174.28;5012352;28;20033;-55
2022/04/06 06:09:13;;;;;;;5.47;1.48;;;;;;;20.00;46.95;100181.91;5011396;28;20283;-54
2022/04/06 06:11:39;;;;;;;6.53;1.73;;;;;;;20.03;45.68;100189.56;5012338;28;20442;-53
2022/04/06 06:14:05;;;;;;;6.28;1.27;;;;;;;20.05;46.43;100184.94;5012254;28;20041;-52
2022/04/06 06:16:31;;;;;;;6.22;1.33;;;;;;;20.07;46.74;100190.88;5011457;28;20037;-55
2022/04/06 06:18:56;;;;;;;4.80;1.30;;;;;;;20.09;46.87;100197.69;5012138;28;20030;-57
2022/04/06 06:21:22;;;;;;;4.70;1.63;;;;;;;20.11;46.96;100189.59;5012432;28;20022;-56
2022/04/06 06:23:47;;;;;;;6.28;1.50;;;;;;;20.11;46.99;100192.25;5011433;28;20029;-57
2022/04/06 06:26:12;;;;;;;7.40;1.70;;;;;;;20.13;47.08;100189.47;5013826;28;20367;-57
2022/04/06 06:28:39;;;;;;;3.90;1.30;;;;;;;20.13;47.22;100189.47;5015592;28;20531;-58
2022/04/06 06:31:04;;;;;;;5.30;1.80;;;;;;;20.11;47.53;100185.13;5014886;28;20029;-58
2022/04/06 06:33:29;;;;;;;4.88;1.30;;;;;;;20.13;47.34;100185.00;5015884;28;20386;-57
2022/04/06 06:35:54;;;;;;;5.57;1.47;;;;;;;20.14;47.38;100184.00;5015422;28;20439;-57
2022/04/06 06:38:22;;;;;;;3.90;1.10;;;;;;;20.14;47.39;100185.81;5014825;28;20701;-57
2022/04/06 06:40:48;;;;;;;4.95;1.90;;;;;;;20.15;47.65;100176.91;5015576;28;20743;-56
2022/04/06 06:43:14;;;;;;;4.47;1.38;;;;;;;20.16;47.52;100179.38;5015513;28;20055;-57
2022/04/06 06:45:39;;;;;;;6.35;1.40;;;;;;;20.18;47.55;100180.06;5014879;28;20724;-57
2022/04/06 06:48:05;;;;;;;5.60;1.20;;;;;;;20.23;47.26;100177.78;5015149;28;20109;-56
2022/04/06 06:50:30;;;;;;;4.53;1.38;;;;;;;20.27;47.42;100167.72;5017487;28;20034;-60
2022/04/06 06:52:55;;;;;;;5.83;1.10;;;;;;;20.38;47.40;100164.00;5015153;28;20495;-57
2022/04/06 06:55:22;;;;;;;6.07;1.48;;;;;;;20.51;47.35;100168.88;5015953;28;20398;-59
2022/04/06 06:57:48;;;;;;;4.68;1.25;;;;;;;20.63;47.09;100167.59;5014509;28;20477;-57
2022/04/06 07:00:14;;;;;;;5.28;1.30;;;;;;;20.73;46.89;100162.22;5015277;28;20536;-58
2022/04/06 07:02:40;;;;;;;5.30;1.33;;;;;;;20.80;46.81;100161.44;5015427;28;20109;-58
2022/04/06 07:05:06;;;;;;;6.55;1.20;;;;;;;20.88;46.52;100163.28;5014176;28;20021;-59
2022/04/06 07:07:31;;;;;;;5.93;1.35;;;;;;;20.96;46.35;100165.97;5015473;28;20042;-59
2022/04/06 07:10:03;;;;;;;5.47;1.20;;;;;;;21.02;46.32;100167.16;5014807;28;20490;-59
2022/04/06 07:12:28;;;;;;;5.90;1.40;;;;;;;21.05;46.03;100163.38;5014177;28;20064;-58
2022/04/06 07:14:53;;;;;;;3.77;1.03;;;;;;;21.10;46.07;100166.38;5014715;28;20484;-57
2022/04/06 07:17:19;;;;;;;3.37;0.90;;;;;;;21.11;45.93;100158.25;5015154;28;20088;-55
2022/04/06 07:19:45;;;;;;;6.30;1.40;;;;;;;21.13;45.92;100161.56;5014533;28;20278;-60
2022/04/06 07:22:10;;;;;;;5.80;1.10;;;;;;;21.15;45.86;100164.88;5015478;28;20492;-56
2022/04/06 07:24:35;;;;;;;4.15;1.10;;;;;;;21.14;45.99;100159.72;5015936;28;20026;-57
2022/04/06 07:27:03;;;;;;;4.73;1.20;;;;;;;21.16;45.71;100165.72;5013861;28;20516;-59
2022/04/06 07:29:28;;;;;;;4.22;1.23;;;;;;;21.17;45.71;100157.63;5014791;28;20751;-58
2022/04/06 07:31:54;;;;;;;3.03;0.90;;;;;;;21.14;45.77;100152.63;5014565;28;20022;-59
2022/04/06 07:34:19;;;;;;;3.47;1.13;;;;;;;21.11;45.70;100152.09;5014111;28;20026;-59
2022/04/06 07:36:44;;;;;;;3.85;1.00;;;;;;;21.09;46.02;100148.78;5014479;28;20030;-59
2022/04/06 07:39:12;;;;;;;4.17;1.20;;;;;;;21.06;45.70;100144.66;5014354;28;20097;-58
2022/04/06 07:41:37;;;;;;;6.35;1.40;;;;;;;21.09;45.86;100148.78;5014425;28;20032;-59
2022/04/06 07:44:06;;;;;;;4.63;1.13;;;;;;;21.10;45.92;100139.88;5014258;28;20022;-58
2022/04/06 07:46:31;;;;;;;3.95;1.00;;;;;;;21.10;45.66;100138.03;5014329;28;20759;-56
2022/04/06 07:48:56;;;;;;;4.90;1.23;;;;;;;21.11;45.54;100134.41;5013441;28;20030;-57
2022/04/06 07:51:22;;;;;;;4.20;1.20;;;;;;;21.11;45.40;100123.81;5014235;28;20030;-51
2022/04/06 07:53:50;;;;;;;3.95;1.08;;;;;;;21.10;45.45;100119.50;5014335;28;20271;-55
2022/04/06 07:56:15;;;;;;;4.15;0.88;;;;;;;21.07;45.43;100114.50;5013279;28;20059;-53
2022/04/06 07:58:49;;;;;;;3.27;0.90;;;;;;;21.07;45.66;100111.03;5014323;28;20109;-51
2022/04/06 08:01:14;;;;;;;6.90;1.35;;;;;;;21.07;45.22;100111.88;5013335;28;20743;-54
2022/04/06 08:03:40;;;;;;;4.97;1.20;;;;;;;21.05;45.35;100110.38;5014497;28;20029;-53
2022/04/06 08:06:06;;;;;;;4.75;1.08;;;;;;;21.03;45.35;100118.50;5013894;28;20299;-55
2022/04/06 08:08:32;;;;;;;5.15;1.30;;;;;;;21.00;45.50;100110.88;5013576;28;20033;-55
2022/04/06 08:10:57;;;;;;;5.90;1.60;;;;;;;20.99;45.55;100115.31;5016403;28;20026;-54
2022/04/06 08:13:23;;;;;;;4.27;1.00;;;;;;;20.96;45.51;100112.16;5018548;28;20081;-56
2022/04/06 08:15:48;;;;;;;3.87;1.30;;;;;;;20.94;45.65;100111.50;5016553;28;20283;-54
2022/04/06 08:18:13;;;;;;;4.03;0.98;;;;;;;20.91;45.61;100117.13;5017500;28;20282;-54
2022/04/06 08:20:41;;;;;;;3.63;1.10;;;;;;;20.89;45.44;100113.81;5013965;28;20025;-54
2022/04/06 08:23:07;;;;;;;3.17;1.00;;;;;;;20.91;45.54;100117.94;5012750;28;20283;-53
2022/04/06 08:25:33;;;;;;;3.07;0.90;;;;;;;20.90;45.66;100123.41;5014012;28;20053;-54
2022/04/06 08:27:58;;;;;;;5.35;1.30;;;;;;;20.87;44.46;100116.63;5013585;28;20065;-54
2022/04/06 08:30:23;;;;;;;3.70;1.20;;;;;;;20.86;44.93;100120.25;5013014;28;20018;-54
2022/04/06 08:32:49;;;;;;;4.03;1.10;;;;;;;20.88;44.48;100122.75;5013402;28;20501;-55
2022/04/06 08:35:15;;;;;;;3.60;1.30;;;;;;;20.84;44.86;100114.28;5013553;28;20477;-52
2022/04/06 08:37:40;;;;;;;4.18;0.95;;;;;;;20.81;45.03;100117.25;5012638;28;20030;-54
2022/04/06 08:40:26;;;;;;;4.63;1.30;;;;;;;20.76;45.15;100117.75;5013038;28;20172;-54
2022/04/06 08:42:51;;;;;;;5.40;1.23;;;;;;;20.73;45.69;100119.84;5012840;28;20494;-51
2022/04/06 08:45:19;;;;;;;5.30;1.20;;;;;;;20.72;45.14;100116.38;5012759;28;20041;-53
2022/04/06 08:47:47;;;;;;;4.68;1.25;;;;;;;20.73;44.70;100118.06;5013130;28;20026;-52
2022/04/06 08:50:13;;;;;;;4.70;1.30;;;;;;;20.74;44.96;100113.56;5012993;28;20038;-51
2022/04/06 08:52:40;;;;;;;5.57;1.30;;;;;;;20.75;44.91;100109.94;5012701;28;20026;-51
2022/04/06 08:55:05;;;;;;;4.82;1.00;;;;;;;20.74;45.03;100109.09;5013104;28;20029;-51
2022/04/06 08:57:33;;;;;;;3.92;1.00;;;;;;;20.73;45.13;100107.47;5012320;28;20025;-52
2022/04/06 09:00:01;;;;;;;4.25;1.20;;;;;;;20.72;45.20;100099.69;5012897;28;20105;-54
2022/04/06 09:02:27;;;;;;;3.78;1.02;;;;;;;20.69;45.62;100105.28;5013114;28;20030;-51
2022/04/06 09:05:03;;;;;;;5.82;1.27;;;;;;;20.68;45.49;100103.63;5011932;28;20030;-52
2022/04/06 09:07:28;;;;;;;4.13;1.20;;;;;;;20.66;45.65;100109.06;5013077;28;20448;-52
2022/04/06 09:09:54;;;;;;;5.40;1.10;;;;;;;20.67;45.81;100104.63;5012991;28;20113;-53
2022/04/06 09:12:23;;;;;;;3.60;1.20;;;;;;;20.68;45.65;100111.56;5012010;28;20057;-51
2022/04/06 09:15:01;;;;;;;4.32;1.40;;;;;;;20.67;45.70;100105.44;5012974;28;20125;-51
2022/04/06 09:17:27;;;;;;;4.40;1.25;;;;;;;20.66;45.85;100101.13;5012934;28;20069;-52
2022/04/06 09:19:53;;;;;;;4.32;1.17;;;;;;;20.65;45.52;100108.25;5012081;28;20072;-53
2022/04/06 09:22:18;;;;;;;3.92;1.20;;;;;;;20.68;45.24;100103.63;5013091;28;20374;-54
2022/04/06 09:24:44;;;;;;;5.30;1.33;;;;;;;20.69;45.65;100103.47;5012893;28;20022;-54
2022/04/06 09:27:09;;;;;;;9.00;1.67;;;;;;;20.71;45.74;100103.31;5011684;28;20105;-54
2022/04/06 09:29:35;;;;;;;3.42;1.10;;;;;;;20.70;45.80;100112.25;5012754;28;20462;-55
2022/04/06 09:32:10;;;;;;;3.65;1.10;;;;;;;20.71;46.14;100101.50;5012411;28;20021;-54
2022/04/06 09:34:37;;;;;;;5.22;1.25;;;;;;;20.70;45.32;100101.66;5012206;28;20034;-53
2022/04/06 09:37:25;;;;;;;4.93;1.42;;;;;;;20.68;45.87;100098.31;5012536;28;20034;-53
2022/04/06 09:39:55;;;;;;;5.47;1.30;;;;;;;20.67;46.13;100096.69;5011876;28;20037;-54
2022/04/06 09:42:23;;;;;;;5.60;1.10;;;;;;;20.67;46.06;100100.16;5012681;28;20532;-54
2022/04/06 09:47:38;;;;;;;5.30;1.45;;;;;;;20.67;46.24;100102.81;5012284;28;20133;-54
2022/04/06 09:50:07;;;;;;;5.47;1.35;;;;;;;20.67;45.98;100105.44;5012396;28;20486;-55
2022/04/06 09:52:35;;;;;;;6.95;1.27;;;;;;;20.69;45.62;100098.16;5012649;28;20030;-55
2022/04/06 09:55:04;;;;;;;4.25;1.27;;;;;;;20.71;45.77;100092.72;5011681;28;20030;-56
2022/04/06 09:57:29;;;;;;;5.63;1.38;;;;;;;20.72;46.01;100097.03;5012369;28;20399;-55
2022/04/06 09:59:56;;;;;;;5.90;1.27;;;;;;;20.75;45.78;100096.72;5012485;28;20026;-55
2022/04/06 10:02:23;;;;;;;5.20;1.33;;;;;;;20.78;45.75;100088.44;5015683;28;20025;-55
2022/04/06 10:04:51;;;;;;;4.63;1.00;;;;;;;20.77;45.88;100097.38;5016329;28;20028;-56
2022/04/06 10:07:22;;;;;;;3.80;1.20;;;;;;;20.74;46.03;100087.09;5016240;28;20026;-56
2022/04/06 10:09:48;;;;;;;5.72;1.30;;;;;;;20.71;46.13;100084.78;5015404;28;20036;-56
2022/04/06 10:12:14;;;;;;;5.35;1.02;;;;;;;20.70;46.18;100086.59;5016112;28;20046;-55
2022/04/06 10:14:39;;;;;;;6.05;1.10;;;;;;;20.70;46.57;100081.31;5015924;28;20028;-56
2022/04/06 10:17:05;;;;;;;6.93;1.20;;;;;;;20.68;46.20;100064.75;5014938;28;20041;-54
2022/04/06 10:19:39;;;;;;;5.30;1.17;;;;;;;20.70;46.49;100086.59;5015974;28;20029;-53
2022/04/06 10:22:17;;;;;;;5.80;1.50;;;;;;;20.71;46.30;100084.78;5014912;28;20069;-56
2022/04/06 10:25:02;;;;;;;4.80;1.23;;;;;;;20.69;46.59;100068.22;5016605;28;20040;-54
2022/04/06 10:27:32;;;;;;;3.08;0.98;;;;;;;20.71;46.41;100082.97;5016078;28;20116;-54
2022/04/06 10:30:09;;;;;;;4.93;1.10;;;;;;;20.72;46.55;100071.38;5014878;28;20136;-54
2022/04/06 10:32:38;;;;;;;6.13;1.10;;;;;;;20.72;46.45;100074.03;5015841;28;20030;-54
2022/04/06 10:35:38;;;;;;;4.55;1.10;;;;;;;20.74;46.61;100076.50;5015553;28;20022;-54
2022/04/06 10:38:04;;;;;;;3.85;1.10;;;;;;;20.75;46.73;100071.06;5023891;28;20489;-55
2022/04/06 10:40:55;;;;;;;8.67;1.50;;;;;;;20.76;46.89;100071.88;5015807;28;20033;-56
2022/04/06 10:43:36;;;;;;;3.15;1.10;;;;;;;20.75;46.76;100067.59;5014834;28;20478;-54
2022/04/06 10:46:06;;;;;;;5.10;1.08;;;;;;;20.74;46.69;100073.88;5015216;28;20433;-55
2022/04/06 10:48:31;;;;;;;5.35;1.50;;;;;;;20.74;47.01;100071.22;5015736;28;20145;-54
2022/04/06 10:51:27;;;;;;;3.87;1.13;;;;;;;20.73;47.02;100073.03;5014426;28;20105;-54
2022/04/06 10:53:52;;;;;;;5.55;1.20;;;;;;;20.74;46.93;100063.28;5015354;28;20283;-51
2022/04/06 10:56:18;;;;;;;7.97;1.30;;;;;;;20.73;46.98;100057.16;5015453;28;20371;-55
2022/04/06 10:58:55;;;;;;;3.20;1.00;;;;;;;20.73;46.82;100051.00;5014726;28;20584;-55
2022/04/06 11:01:33;;;;;;;5.28;1.25;;;;;;;20.73;46.84;100059.81;5015292;28;20281;-54
2022/04/06 11:04:01;;;;;;;4.65;1.23;;;;;;;20.75;46.88;100052.53;5014393;28;20076;-55
2022/04/06 11:06:44;;;;;;;5.28;1.42;;;;;;;20.74;46.85;100052.69;5015054;28;20472;-54
2022/04/06 11:12:32;;;;;;;4.20;1.23;;;;;;;20.73;47.11;100043.06;5013970;28;20084;-55
2022/04/06 11:14:57;;;;;;;3.05;1.20;;;;;;;20.72;46.99;100042.25;5014741;28;20109;-56
2022/04/06 11:17:35;;;;;;;5.20;1.70;;;;;;;20.72;47.09;100044.06;5014963;28;20456;-52
2022/04/06 11:20:09;;;;;;;4.85;1.77;;;;;;;20.71;47.30;100035.31;5013693;28;20113;-54
2022/04/06 11:22:42;;;;;;;;;;;;;;;20.72;47.26;100036.94;5015679;28;20030;-57
2022/04/06 11:25:12;;;;;;;3.85;0.98;;;;;;;20.78;47.05;100031.00;5014433;28;20259;-56
2022/04/06 11:27:39;;;;;;;3.42;0.85;;;;;;;20.86;47.30;100030.22;5015585;28;20037;-57
2022/04/06 11:30:26;;;;;;;5.85;1.20;;;;;;;20.92;47.34;100023.41;5014937;28;20025;-58
2022/04/06 11:32:56;;;;;;;4.60;1.15;;;;;;;20.97;47.07;100027.25;5016637;28;20068;-54
2022/04/06 11:35:30;;;;;;;5.10;1.30;;;;;;;20.99;47.08;100019.97;5014578;28;20045;-56
2022/04/06 11:37:56;;;;;;;3.28;0.90;;;;;;;21.02;47.03;100019.63;5015455;28;20056;-57